sensor_id;sensor_type;location;lat;lon;timestamp;P1;durP1;ratioP1;P2;durP2;ratioP2
17488;SDS011;8861;52.644;4.734;2023-04-07T00:00:52;12.50;;;5.37;;
17488;SDS011;8861;52.644;4.734;2023-04-07T00:03:19;20.80;;;6.20;;
17488;SDS011;8861;52.644;4.734;2023-04-07T00:05:47;13.67;;;5.53;;
17488;SDS011;8861;52.644;4.734;2023-04-07T00:08:15;9.23;;;4.83;;
17488;SDS011;8861;52.644;4.734;2023-04-07T00:10:42;16.83;;;5.37;;
17488;SDS011;8861;52.644;4.734;2023-04-07T00:13:09;12.07;;;5.03;;
17488;SDS011;8861;52.644;4.734;2023-04-07T00:15:36;14.53;;;5.00;;
17488;SDS011;8861;52.644;4.734;2023-04-07T00:18:03;9.50;;;4.43;;
17488;SDS011;8861;52.644;4.734;2023-04-07T00:20:30;14.37;;;4.90;;
17488;SDS011;8861;52.644;4.734;2023-04-07T00:22:57;12.70;;;4.70;;
17488;SDS011;8861;52.644;4.734;2023-04-07T00:25:25;11.13;;;4.43;;
17488;SDS011;8861;52.644;4.734;2023-04-07T00:27:52;20.80;;;6.50;;
17488;SDS011;8861;52.644;4.734;2023-04-07T00:30:19;10.10;;;4.70;;
17488;SDS011;8861;52.644;4.734;2023-04-07T00:32:46;14.80;;;5.60;;
17488;SDS011;8861;52.644;4.734;2023-04-07T00:35:15;15.37;;;6.13;;
17488;SDS011;8861;52.644;4.734;2023-04-07T00:37:42;16.43;;;6.00;;
17488;SDS011;8861;52.644;4.734;2023-04-07T00:40:09;11.13;;;5.30;;
17488;SDS011;8861;52.644;4.734;2023-04-07T00:42:38;16.97;;;6.53;;
17488;SDS011;8861;52.644;4.734;2023-04-07T00:45:05;14.83;;;5.90;;
17488;SDS011;8861;52.644;4.734;2023-04-07T00:47:34;17.50;;;6.40;;
17488;SDS011;8861;52.644;4.734;2023-04-07T00:50:02;15.00;;;6.33;;
17488;SDS011;8861;52.644;4.734;2023-04-07T00:52:29;15.47;;;6.03;;
17488;SDS011;8861;52.644;4.734;2023-04-07T00:54:58;13.67;;;5.53;;
17488;SDS011;8861;52.644;4.734;2023-04-07T00:57:25;15.73;;;6.13;;
17488;SDS011;8861;52.644;4.734;2023-04-07T00:59:54;10.97;;;5.70;;
17488;SDS011;8861;52.644;4.734;2023-04-07T01:02:22;16.23;;;6.30;;
17488;SDS011;8861;52.644;4.734;2023-04-07T01:04:58;14.70;;;6.03;;
17488;SDS011;8861;52.644;4.734;2023-04-07T01:07:36;10.57;;;5.43;;
17488;SDS011;8861;52.644;4.734;2023-04-07T01:10:10;24.70;;;6.53;;
17488;SDS011;8861;52.644;4.734;2023-04-07T01:12:53;18.83;;;6.40;;
17488;SDS011;8861;52.644;4.734;2023-04-07T01:15:28;15.83;;;5.70;;
17488;SDS011;8861;52.644;4.734;2023-04-07T01:17:58;16.80;;;6.53;;
17488;SDS011;8861;52.644;4.734;2023-04-07T01:20:26;10.10;;;5.53;;
17488;SDS011;8861;52.644;4.734;2023-04-07T01:22:58;17.50;;;5.40;;
17488;SDS011;8861;52.644;4.734;2023-04-07T01:25:34;13.40;;;5.13;;
17488;SDS011;8861;52.644;4.734;2023-04-07T01:28:23;7.17;;;4.80;;
17488;SDS011;8861;52.644;4.734;2023-04-07T01:31:05;11.50;;;5.07;;
17488;SDS011;8861;52.644;4.734;2023-04-07T01:33:34;10.00;;;4.40;;
17488;SDS011;8861;52.644;4.734;2023-04-07T01:36:02;13.83;;;4.63;;
17488;SDS011;8861;52.644;4.734;2023-04-07T01:38:31;9.90;;;4.63;;
17488;SDS011;8861;52.644;4.734;2023-04-07T01:40:59;10.17;;;4.60;;
17488;SDS011;8861;52.644;4.734;2023-04-07T01:43:28;10.77;;;4.50;;
17488;SDS011;8861;52.644;4.734;2023-04-07T01:45:56;13.30;;;4.90;;
17488;SDS011;8861;52.644;4.734;2023-04-07T01:48:26;11.90;;;4.70;;
17488;SDS011;8861;52.644;4.734;2023-04-07T01:50:53;16.80;;;4.70;;
17488;SDS011;8861;52.644;4.734;2023-04-07T01:53:22;18.10;;;5.23;;
17488;SDS011;8861;52.644;4.734;2023-04-07T01:55:49;9.73;;;4.80;;
17488;SDS011;8861;52.644;4.734;2023-04-07T01:58:18;23.80;;;6.50;;
17488;SDS011;8861;52.644;4.734;2023-04-07T02:00:45;12.40;;;6.00;;
17488;SDS011;8861;52.644;4.734;2023-04-07T02:03:13;17.93;;;7.60;;
17488;SDS011;8861;52.644;4.734;2023-04-07T02:05:47;15.83;;;6.27;;
17488;SDS011;8861;52.644;4.734;2023-04-07T02:08:17;20.57;;;7.37;;
17488;SDS011;8861;52.644;4.734;2023-04-07T02:10:46;12.70;;;6.40;;
17488;SDS011;8861;52.644;4.734;2023-04-07T02:13:17;24.60;;;8.07;;
17488;SDS011;8861;52.644;4.734;2023-04-07T02:15:45;13.13;;;6.17;;
17488;SDS011;8861;52.644;4.734;2023-04-07T02:18:15;19.93;;;6.73;;
17488;SDS011;8861;52.644;4.734;2023-04-07T02:20:44;11.23;;;6.20;;
17488;SDS011;8861;52.644;4.734;2023-04-07T02:23:15;19.10;;;7.33;;
17488;SDS011;8861;52.644;4.734;2023-04-07T02:25:42;15.30;;;6.60;;
17488;SDS011;8861;52.644;4.734;2023-04-07T02:28:09;17.43;;;7.63;;
17488;SDS011;8861;52.644;4.734;2023-04-07T02:30:36;16.23;;;6.50;;
17488;SDS011;8861;52.644;4.734;2023-04-07T02:33:03;16.53;;;6.70;;
17488;SDS011;8861;52.644;4.734;2023-04-07T02:35:30;24.90;;;7.90;;
17488;SDS011;8861;52.644;4.734;2023-04-07T02:37:58;17.27;;;7.00;;
17488;SDS011;8861;52.644;4.734;2023-04-07T02:40:25;16.13;;;6.60;;
17488;SDS011;8861;52.644;4.734;2023-04-07T02:42:52;15.50;;;6.60;;
17488;SDS011;8861;52.644;4.734;2023-04-07T02:45:19;18.73;;;7.37;;
17488;SDS011;8861;52.644;4.734;2023-04-07T02:47:46;14.33;;;7.23;;
17488;SDS011;8861;52.644;4.734;2023-04-07T02:50:13;22.67;;;7.70;;
17488;SDS011;8861;52.644;4.734;2023-04-07T02:52:40;17.30;;;6.70;;
17488;SDS011;8861;52.644;4.734;2023-04-07T02:55:09;13.97;;;6.33;;
17488;SDS011;8861;52.644;4.734;2023-04-07T02:57:36;10.43;;;5.70;;
17488;SDS011;8861;52.644;4.734;2023-04-07T03:00:03;12.33;;;5.67;;
17488;SDS011;8861;52.644;4.734;2023-04-07T03:02:31;19.50;;;6.47;;
17488;SDS011;8861;52.644;4.734;2023-04-07T03:04:57;10.47;;;5.47;;
17488;SDS011;8861;52.644;4.734;2023-04-07T03:07:24;15.00;;;5.30;;
17488;SDS011;8861;52.644;4.734;2023-04-07T03:09:51;12.93;;;5.20;;
17488;SDS011;8861;52.644;4.734;2023-04-07T03:12:20;11.67;;;5.13;;
17488;SDS011;8861;52.644;4.734;2023-04-07T03:14:47;14.00;;;5.13;;
17488;SDS011;8861;52.644;4.734;2023-04-07T03:17:14;17.63;;;6.30;;
17488;SDS011;8861;52.644;4.734;2023-04-07T03:19:40;13.27;;;5.30;;
17488;SDS011;8861;52.644;4.734;2023-04-07T03:22:07;17.50;;;5.67;;
17488;SDS011;8861;52.644;4.734;2023-04-07T03:24:34;12.57;;;4.90;;
17488;SDS011;8861;52.644;4.734;2023-04-07T03:27:03;12.40;;;4.70;;
17488;SDS011;8861;52.644;4.734;2023-04-07T03:29:32;15.03;;;4.43;;
17488;SDS011;8861;52.644;4.734;2023-04-07T03:31:59;19.90;;;5.10;;
17488;SDS011;8861;52.644;4.734;2023-04-07T03:34:26;17.20;;;4.53;;
17488;SDS011;8861;52.644;4.734;2023-04-07T03:36:53;15.03;;;3.80;;
17488;SDS011;8861;52.644;4.734;2023-04-07T03:39:19;12.63;;;4.73;;
17488;SDS011;8861;52.644;4.734;2023-04-07T03:41:47;14.10;;;4.50;;
17488;SDS011;8861;52.644;4.734;2023-04-07T03:44:13;16.23;;;4.80;;
17488;SDS011;8861;52.644;4.734;2023-04-07T03:46:42;10.20;;;3.80;;
17488;SDS011;8861;52.644;4.734;2023-04-07T03:49:09;14.43;;;4.03;;
17488;SDS011;8861;52.644;4.734;2023-04-07T03:51:36;16.33;;;4.57;;
17488;SDS011;8861;52.644;4.734;2023-04-07T03:54:03;16.77;;;5.03;;
17488;SDS011;8861;52.644;4.734;2023-04-07T03:56:30;14.27;;;4.47;;
17488;SDS011;8861;52.644;4.734;2023-04-07T03:58:57;16.10;;;4.87;;
17488;SDS011;8861;52.644;4.734;2023-04-07T04:01:24;19.10;;;4.70;;
17488;SDS011;8861;52.644;4.734;2023-04-07T04:03:52;13.83;;;4.30;;
17488;SDS011;8861;52.644;4.734;2023-04-07T04:06:19;10.87;;;3.90;;
17488;SDS011;8861;52.644;4.734;2023-04-07T04:08:46;15.13;;;4.33;;
17488;SDS011;8861;52.644;4.734;2023-04-07T04:11:13;14.30;;;4.33;;
17488;SDS011;8861;52.644;4.734;2023-04-07T04:13:40;15.03;;;4.40;;
17488;SDS011;8861;52.644;4.734;2023-04-07T04:16:07;16.57;;;4.80;;
17488;SDS011;8861;52.644;4.734;2023-04-07T04:18:34;19.70;;;4.37;;
17488;SDS011;8861;52.644;4.734;2023-04-07T04:21:02;18.17;;;4.73;;
17488;SDS011;8861;52.644;4.734;2023-04-07T04:23:29;16.40;;;4.53;;
17488;SDS011;8861;52.644;4.734;2023-04-07T04:25:56;16.17;;;4.23;;
17488;SDS011;8861;52.644;4.734;2023-04-07T04:28:24;17.97;;;4.40;;
17488;SDS011;8861;52.644;4.734;2023-04-07T04:30:51;23.03;;;4.83;;
17488;SDS011;8861;52.644;4.734;2023-04-07T04:33:18;18.93;;;4.57;;
17488;SDS011;8861;52.644;4.734;2023-04-07T04:35:45;13.73;;;4.03;;
17488;SDS011;8861;52.644;4.734;2023-04-07T04:38:14;9.83;;;3.90;;
17488;SDS011;8861;52.644;4.734;2023-04-07T04:40:41;21.43;;;4.43;;
17488;SDS011;8861;52.644;4.734;2023-04-07T04:43:08;16.33;;;4.50;;
17488;SDS011;8861;52.644;4.734;2023-04-07T04:45:35;11.73;;;4.07;;
17488;SDS011;8861;52.644;4.734;2023-04-07T04:48:02;12.93;;;4.27;;
17488;SDS011;8861;52.644;4.734;2023-04-07T04:50:30;18.40;;;4.70;;
17488;SDS011;8861;52.644;4.734;2023-04-07T04:52:57;10.53;;;4.40;;
17488;SDS011;8861;52.644;4.734;2023-04-07T04:55:25;12.53;;;3.90;;
17488;SDS011;8861;52.644;4.734;2023-04-07T04:57:52;9.57;;;3.53;;
17488;SDS011;8861;52.644;4.734;2023-04-07T05:00:19;9.10;;;4.07;;
17488;SDS011;8861;52.644;4.734;2023-04-07T05:02:46;14.00;;;4.33;;
17488;SDS011;8861;52.644;4.734;2023-04-07T05:05:13;7.97;;;4.03;;
17488;SDS011;8861;52.644;4.734;2023-04-07T05:07:40;10.87;;;4.10;;
17488;SDS011;8861;52.644;4.734;2023-04-07T05:10:07;17.63;;;5.00;;
17488;SDS011;8861;52.644;4.734;2023-04-07T05:12:36;12.33;;;4.13;;
17488;SDS011;8861;52.644;4.734;2023-04-07T05:15:03;10.23;;;3.73;;
17488;SDS011;8861;52.644;4.734;2023-04-07T05:17:31;15.00;;;4.20;;
17488;SDS011;8861;52.644;4.734;2023-04-07T05:19:58;11.47;;;4.00;;
17488;SDS011;8861;52.644;4.734;2023-04-07T05:22:25;17.00;;;4.70;;
17488;SDS011;8861;52.644;4.734;2023-04-07T05:24:51;14.90;;;4.20;;
17488;SDS011;8861;52.644;4.734;2023-04-07T05:27:18;16.67;;;4.47;;
17488;SDS011;8861;52.644;4.734;2023-04-07T05:29:47;13.33;;;4.03;;
17488;SDS011;8861;52.644;4.734;2023-04-07T05:32:14;11.20;;;3.87;;
17488;SDS011;8861;52.644;4.734;2023-04-07T05:34:41;11.47;;;3.53;;
17488;SDS011;8861;52.644;4.734;2023-04-07T05:37:08;11.00;;;4.00;;
17488;SDS011;8861;52.644;4.734;2023-04-07T05:39:35;9.90;;;3.70;;
17488;SDS011;8861;52.644;4.734;2023-04-07T05:42:02;9.67;;;3.30;;
17488;SDS011;8861;52.644;4.734;2023-04-07T05:44:29;14.40;;;3.47;;
17488;SDS011;8861;52.644;4.734;2023-04-07T05:46:57;9.30;;;3.40;;
17488;SDS011;8861;52.644;4.734;2023-04-07T05:49:25;11.97;;;3.17;;
17488;SDS011;8861;52.644;4.734;2023-04-07T05:51:52;8.87;;;3.50;;
17488;SDS011;8861;52.644;4.734;2023-04-07T05:54:19;8.13;;;3.13;;
17488;SDS011;8861;52.644;4.734;2023-04-07T05:56:46;12.80;;;3.67;;
17488;SDS011;8861;52.644;4.734;2023-04-07T05:59:12;14.23;;;3.57;;
17488;SDS011;8861;52.644;4.734;2023-04-07T06:01:39;7.57;;;3.40;;
17488;SDS011;8861;52.644;4.734;2023-04-07T06:04:08;7.87;;;3.40;;
17488;SDS011;8861;52.644;4.734;2023-04-07T06:06:35;7.00;;;3.60;;
17488;SDS011;8861;52.644;4.734;2023-04-07T06:09:02;6.20;;;3.50;;
17488;SDS011;8861;52.644;4.734;2023-04-07T06:11:29;8.93;;;3.60;;
17488;SDS011;8861;52.644;4.734;2023-04-07T06:13:56;5.53;;;3.40;;
17488;SDS011;8861;52.644;4.734;2023-04-07T06:16:23;6.83;;;3.50;;
17488;SDS011;8861;52.644;4.734;2023-04-07T06:18:50;5.43;;;2.97;;
17488;SDS011;8861;52.644;4.734;2023-04-07T06:21:18;7.47;;;3.20;;
17488;SDS011;8861;52.644;4.734;2023-04-07T06:23:45;8.27;;;3.57;;
17488;SDS011;8861;52.644;4.734;2023-04-07T06:26:12;8.17;;;3.70;;
17488;SDS011;8861;52.644;4.734;2023-04-07T06:28:39;6.53;;;2.77;;
17488;SDS011;8861;52.644;4.734;2023-04-07T06:31:06;7.30;;;3.40;;
17488;SDS011;8861;52.644;4.734;2023-04-07T06:33:33;5.73;;;2.70;;
17488;SDS011;8861;52.644;4.734;2023-04-07T06:36:00;7.27;;;3.03;;
17488;SDS011;8861;52.644;4.734;2023-04-07T06:38:29;7.57;;;2.67;;
17488;SDS011;8861;52.644;4.734;2023-04-07T06:40:56;8.63;;;3.00;;
17488;SDS011;8861;52.644;4.734;2023-04-07T06:43:23;8.53;;;2.83;;
17488;SDS011;8861;52.644;4.734;2023-04-07T06:45:50;10.63;;;3.27;;
17488;SDS011;8861;52.644;4.734;2023-04-07T06:48:16;8.60;;;3.30;;
17488;SDS011;8861;52.644;4.734;2023-04-07T06:50:44;9.70;;;3.30;;
17488;SDS011;8861;52.644;4.734;2023-04-07T06:53:12;9.30;;;3.50;;
17488;SDS011;8861;52.644;4.734;2023-04-07T06:55:40;13.10;;;4.00;;
17488;SDS011;8861;52.644;4.734;2023-04-07T06:58:07;11.20;;;3.77;;
17488;SDS011;8861;52.644;4.734;2023-04-07T07:00:35;10.83;;;3.30;;
17488;SDS011;8861;52.644;4.734;2023-04-07T07:03:02;5.80;;;3.10;;
17488;SDS011;8861;52.644;4.734;2023-04-07T07:05:29;12.07;;;3.77;;
17488;SDS011;8861;52.644;4.734;2023-04-07T07:07:56;7.20;;;2.93;;
17488;SDS011;8861;52.644;4.734;2023-04-07T07:10:23;10.83;;;3.23;;
17488;SDS011;8861;52.644;4.734;2023-04-07T07:12:51;12.63;;;3.43;;
17488;SDS011;8861;52.644;4.734;2023-04-07T07:15:18;10.17;;;3.23;;
17488;SDS011;8861;52.644;4.734;2023-04-07T07:17:45;10.23;;;3.40;;
17488;SDS011;8861;52.644;4.734;2023-04-07T07:20:12;7.20;;;2.80;;
17488;SDS011;8861;52.644;4.734;2023-04-07T07:22:39;10.87;;;3.40;;
17488;SDS011;8861;52.644;4.734;2023-04-07T07:25:07;9.17;;;3.30;;
17488;SDS011;8861;52.644;4.734;2023-04-07T07:27:34;9.17;;;3.00;;
17488;SDS011;8861;52.644;4.734;2023-04-07T07:30:02;9.87;;;3.10;;
17488;SDS011;8861;52.644;4.734;2023-04-07T07:32:34;12.23;;;3.07;;
17488;SDS011;8861;52.644;4.734;2023-04-07T07:35:00;5.90;;;2.77;;
17488;SDS011;8861;52.644;4.734;2023-04-07T07:37:27;12.47;;;3.30;;
17488;SDS011;8861;52.644;4.734;2023-04-07T07:39:54;6.70;;;2.87;;
17488;SDS011;8861;52.644;4.734;2023-04-07T07:42:21;6.20;;;2.60;;
17488;SDS011;8861;52.644;4.734;2023-04-07T07:44:48;15.67;;;4.30;;
17488;SDS011;8861;52.644;4.734;2023-04-07T07:47:17;10.30;;;3.40;;
17488;SDS011;8861;52.644;4.734;2023-04-07T07:49:43;14.33;;;3.30;;
17488;SDS011;8861;52.644;4.734;2023-04-07T07:52:10;9.03;;;2.80;;
17488;SDS011;8861;52.644;4.734;2023-04-07T07:54:37;11.07;;;2.90;;
17488;SDS011;8861;52.644;4.734;2023-04-07T07:57:04;8.43;;;2.70;;
17488;SDS011;8861;52.644;4.734;2023-04-07T07:59:31;6.70;;;2.77;;
17488;SDS011;8861;52.644;4.734;2023-04-07T08:01:58;9.23;;;2.90;;
17488;SDS011;8861;52.644;4.734;2023-04-07T08:04:27;5.70;;;2.53;;
17488;SDS011;8861;52.644;4.734;2023-04-07T08:06:53;11.40;;;3.30;;
17488;SDS011;8861;52.644;4.734;2023-04-07T08:09:21;4.90;;;2.57;;
17488;SDS011;8861;52.644;4.734;2023-04-07T08:11:47;8.93;;;3.37;;
17488;SDS011;8861;52.644;4.734;2023-04-07T08:14:15;8.13;;;3.00;;
17488;SDS011;8861;52.644;4.734;2023-04-07T08:16:42;9.03;;;3.07;;
17488;SDS011;8861;52.644;4.734;2023-04-07T08:19:10;7.00;;;2.70;;
17488;SDS011;8861;52.644;4.734;2023-04-07T08:21:39;10.53;;;3.10;;
17488;SDS011;8861;52.644;4.734;2023-04-07T08:24:07;11.77;;;3.30;;
17488;SDS011;8861;52.644;4.734;2023-04-07T08:26:35;9.30;;;2.97;;
17488;SDS011;8861;52.644;4.734;2023-04-07T08:29:02;9.80;;;3.00;;
17488;SDS011;8861;52.644;4.734;2023-04-07T08:31:29;4.90;;;2.20;;
17488;SDS011;8861;52.644;4.734;2023-04-07T08:33:56;10.77;;;2.93;;
17488;SDS011;8861;52.644;4.734;2023-04-07T08:36:24;9.87;;;2.87;;
17488;SDS011;8861;52.644;4.734;2023-04-07T08:38:53;12.10;;;2.90;;
17488;SDS011;8861;52.644;4.734;2023-04-07T08:41:21;9.53;;;3.03;;
17488;SDS011;8861;52.644;4.734;2023-04-07T08:43:54;9.50;;;3.27;;
17488;SDS011;8861;52.644;4.734;2023-04-07T08:46:23;9.80;;;3.03;;
17488;SDS011;8861;52.644;4.734;2023-04-07T08:48:51;7.17;;;2.97;;
17488;SDS011;8861;52.644;4.734;2023-04-07T08:51:26;15.00;;;4.33;;
17488;SDS011;8861;52.644;4.734;2023-04-07T08:53:59;14.97;;;4.60;;
17488;SDS011;8861;52.644;4.734;2023-04-07T08:56:31;16.07;;;4.63;;
17488;SDS011;8861;52.644;4.734;2023-04-07T08:58:58;13.27;;;4.30;;
17488;SDS011;8861;52.644;4.734;2023-04-07T09:01:26;18.57;;;5.97;;
17488;SDS011;8861;52.644;4.734;2023-04-07T09:03:55;12.10;;;4.47;;
17488;SDS011;8861;52.644;4.734;2023-04-07T09:06:22;13.47;;;4.80;;
17488;SDS011;8861;52.644;4.734;2023-04-07T09:08:51;16.20;;;5.10;;
17488;SDS011;8861;52.644;4.734;2023-04-07T09:11:19;18.67;;;4.93;;
17488;SDS011;8861;52.644;4.734;2023-04-07T09:13:48;14.63;;;5.13;;
17488;SDS011;8861;52.644;4.734;2023-04-07T09:16:15;23.20;;;6.43;;
17488;SDS011;8861;52.644;4.734;2023-04-07T09:18:43;12.50;;;4.80;;
17488;SDS011;8861;52.644;4.734;2023-04-07T09:21:09;13.50;;;5.30;;
17488;SDS011;8861;52.644;4.734;2023-04-07T09:23:37;18.37;;;5.43;;
17488;SDS011;8861;52.644;4.734;2023-04-07T09:26:18;15.60;;;5.27;;
17488;SDS011;8861;52.644;4.734;2023-04-07T09:28:50;16.57;;;5.30;;
17488;SDS011;8861;52.644;4.734;2023-04-07T09:31:19;12.83;;;4.83;;
17488;SDS011;8861;52.644;4.734;2023-04-07T09:33:46;17.80;;;5.20;;
17488;SDS011;8861;52.644;4.734;2023-04-07T09:36:14;13.87;;;4.67;;
17488;SDS011;8861;52.644;4.734;2023-04-07T09:38:42;9.77;;;4.20;;
17488;SDS011;8861;52.644;4.734;2023-04-07T09:41:10;21.10;;;6.33;;
17488;SDS011;8861;52.644;4.734;2023-04-07T09:43:40;21.13;;;6.57;;
17488;SDS011;8861;52.644;4.734;2023-04-07T09:46:09;17.03;;;5.10;;
17488;SDS011;8861;52.644;4.734;2023-04-07T09:48:37;14.57;;;5.33;;
17488;SDS011;8861;52.644;4.734;2023-04-07T09:51:05;19.97;;;5.80;;
17488;SDS011;8861;52.644;4.734;2023-04-07T09:53:40;15.73;;;5.87;;
17488;SDS011;8861;52.644;4.734;2023-04-07T09:56:08;22.33;;;5.90;;
17488;SDS011;8861;52.644;4.734;2023-04-07T09:58:37;13.90;;;5.73;;
17488;SDS011;8861;52.644;4.734;2023-04-07T10:01:07;14.67;;;5.43;;
17488;SDS011;8861;52.644;4.734;2023-04-07T10:03:34;14.33;;;5.23;;
17488;SDS011;8861;52.644;4.734;2023-04-07T10:06:02;13.90;;;5.40;;
17488;SDS011;8861;52.644;4.734;2023-04-07T10:08:31;13.90;;;5.07;;
17488;SDS011;8861;52.644;4.734;2023-04-07T10:11:00;16.27;;;5.13;;
17488;SDS011;8861;52.644;4.734;2023-04-07T10:13:28;15.77;;;5.43;;
17488;SDS011;8861;52.644;4.734;2023-04-07T10:15:56;20.57;;;6.27;;
17488;SDS011;8861;52.644;4.734;2023-04-07T10:18:27;22.93;;;6.50;;
17488;SDS011;8861;52.644;4.734;2023-04-07T10:20:56;23.50;;;7.30;;
17488;SDS011;8861;52.644;4.734;2023-04-07T10:23:28;23.80;;;7.33;;
17488;SDS011;8861;52.644;4.734;2023-04-07T10:26:05;23.53;;;8.73;;
17488;SDS011;8861;52.644;4.734;2023-04-07T10:28:34;20.90;;;7.80;;
17488;SDS011;8861;52.644;4.734;2023-04-07T10:31:06;28.27;;;7.50;;
17488;SDS011;8861;52.644;4.734;2023-04-07T10:33:44;27.60;;;7.73;;
17488;SDS011;8861;52.644;4.734;2023-04-07T10:36:12;27.93;;;9.77;;
17488;SDS011;8861;52.644;4.734;2023-04-07T10:38:40;30.13;;;9.00;;
17488;SDS011;8861;52.644;4.734;2023-04-07T10:43:59;22.50;;;7.53;;
17488;SDS011;8861;52.644;4.734;2023-04-07T10:49:24;21.27;;;7.80;;
17488;SDS011;8861;52.644;4.734;2023-04-07T11:00:41;24.60;;;8.53;;
17488;SDS011;8861;52.644;4.734;2023-04-07T11:03:09;16.23;;;7.57;;
17488;SDS011;8861;52.644;4.734;2023-04-07T11:05:39;22.60;;;7.93;;
17488;SDS011;8861;52.644;4.734;2023-04-07T11:08:06;22.13;;;7.47;;
17488;SDS011;8861;52.644;4.734;2023-04-07T11:10:33;30.87;;;9.13;;
17488;SDS011;8861;52.644;4.734;2023-04-07T11:13:02;19.27;;;7.73;;
17488;SDS011;8861;52.644;4.734;2023-04-07T11:15:30;18.33;;;7.43;;
17488;SDS011;8861;52.644;4.734;2023-04-07T11:18:11;18.73;;;6.30;;
17488;SDS011;8861;52.644;4.734;2023-04-07T11:20:44;20.67;;;7.30;;
17488;SDS011;8861;52.644;4.734;2023-04-07T11:23:13;20.13;;;6.80;;
17488;SDS011;8861;52.644;4.734;2023-04-07T11:25:41;16.17;;;6.47;;
17488;SDS011;8861;52.644;4.734;2023-04-07T11:28:09;14.53;;;6.50;;
17488;SDS011;8861;52.644;4.734;2023-04-07T11:30:37;17.63;;;7.17;;
17488;SDS011;8861;52.644;4.734;2023-04-07T11:33:05;20.80;;;6.80;;
17488;SDS011;8861;52.644;4.734;2023-04-07T11:35:33;16.23;;;6.87;;
17488;SDS011;8861;52.644;4.734;2023-04-07T11:38:02;13.20;;;5.47;;
17488;SDS011;8861;52.644;4.734;2023-04-07T11:40:33;14.23;;;6.03;;
17488;SDS011;8861;52.644;4.734;2023-04-07T11:43:02;15.80;;;6.73;;
17488;SDS011;8861;52.644;4.734;2023-04-07T11:45:41;14.90;;;5.83;;
17488;SDS011;8861;52.644;4.734;2023-04-07T11:50:54;11.60;;;5.33;;
17488;SDS011;8861;52.644;4.734;2023-04-07T11:53:26;8.97;;;5.07;;
17488;SDS011;8861;52.644;4.734;2023-04-07T11:56:04;17.77;;;5.97;;
17488;SDS011;8861;52.644;4.734;2023-04-07T11:58:33;17.17;;;7.03;;
17488;SDS011;8861;52.644;4.734;2023-04-07T12:01:01;17.17;;;6.07;;
17488;SDS011;8861;52.644;4.734;2023-04-07T12:03:31;16.67;;;5.80;;
17488;SDS011;8861;52.644;4.734;2023-04-07T12:05:58;19.33;;;5.50;;
17488;SDS011;8861;52.644;4.734;2023-04-07T12:08:40;15.33;;;6.03;;
17488;SDS011;8861;52.644;4.734;2023-04-07T12:11:09;16.77;;;6.87;;
17488;SDS011;8861;52.644;4.734;2023-04-07T12:13:37;15.20;;;6.90;;
17488;SDS011;8861;52.644;4.734;2023-04-07T12:16:05;20.20;;;7.70;;
17488;SDS011;8861;52.644;4.734;2023-04-07T12:18:32;16.93;;;7.93;;
17488;SDS011;8861;52.644;4.734;2023-04-07T12:20:59;18.83;;;7.57;;
17488;SDS011;8861;52.644;4.734;2023-04-07T12:23:26;16.30;;;6.50;;
17488;SDS011;8861;52.644;4.734;2023-04-07T12:25:54;12.23;;;6.23;;
17488;SDS011;8861;52.644;4.734;2023-04-07T12:28:21;20.90;;;7.80;;
17488;SDS011;8861;52.644;4.734;2023-04-07T12:30:48;19.73;;;7.93;;
17488;SDS011;8861;52.644;4.734;2023-04-07T12:33:15;24.23;;;8.27;;
17488;SDS011;8861;52.644;4.734;2023-04-07T12:35:42;20.50;;;7.40;;
17488;SDS011;8861;52.644;4.734;2023-04-07T12:38:09;12.43;;;6.03;;
17488;SDS011;8861;52.644;4.734;2023-04-07T12:40:36;13.80;;;6.17;;
17488;SDS011;8861;52.644;4.734;2023-04-07T12:43:04;21.00;;;7.47;;
17488;SDS011;8861;52.644;4.734;2023-04-07T12:45:32;14.50;;;5.93;;
17488;SDS011;8861;52.644;4.734;2023-04-07T12:47:59;18.10;;;7.43;;
17488;SDS011;8861;52.644;4.734;2023-04-07T12:50:26;17.33;;;7.40;;
17488;SDS011;8861;52.644;4.734;2023-04-07T12:52:54;13.23;;;6.20;;
17488;SDS011;8861;52.644;4.734;2023-04-07T12:55:23;12.83;;;6.27;;
17488;SDS011;8861;52.644;4.734;2023-04-07T12:57:50;15.23;;;6.40;;
17488;SDS011;8861;52.644;4.734;2023-04-07T13:00:18;14.90;;;6.27;;
17488;SDS011;8861;52.644;4.734;2023-04-07T13:02:45;15.90;;;6.60;;
17488;SDS011;8861;52.644;4.734;2023-04-07T13:05:12;11.37;;;5.83;;
17488;SDS011;8861;52.644;4.734;2023-04-07T13:07:39;14.50;;;5.67;;
17488;SDS011;8861;52.644;4.734;2023-04-07T13:10:07;13.13;;;5.70;;
17488;SDS011;8861;52.644;4.734;2023-04-07T13:12:34;11.83;;;6.23;;
17488;SDS011;8861;52.644;4.734;2023-04-07T13:15:01;13.27;;;5.80;;
17488;SDS011;8861;52.644;4.734;2023-04-07T13:17:30;18.57;;;7.83;;
17488;SDS011;8861;52.644;4.734;2023-04-07T13:20:00;21.57;;;8.33;;
17488;SDS011;8861;52.644;4.734;2023-04-07T13:22:27;17.30;;;8.13;;
17488;SDS011;8861;52.644;4.734;2023-04-07T13:24:54;14.90;;;7.77;;
17488;SDS011;8861;52.644;4.734;2023-04-07T13:27:21;16.10;;;8.83;;
17488;SDS011;8861;52.644;4.734;2023-04-07T13:29:48;15.00;;;8.70;;
17488;SDS011;8861;52.644;4.734;2023-04-07T13:32:15;15.10;;;8.30;;
17488;SDS011;8861;52.644;4.734;2023-04-07T13:34:44;11.07;;;7.43;;
17488;SDS011;8861;52.644;4.734;2023-04-07T13:37:11;12.37;;;7.87;;
17488;SDS011;8861;52.644;4.734;2023-04-07T13:39:38;17.20;;;10.23;;
17488;SDS011;8861;52.644;4.734;2023-04-07T13:42:05;18.90;;;11.43;;
17488;SDS011;8861;52.644;4.734;2023-04-07T13:44:33;18.03;;;10.77;;
17488;SDS011;8861;52.644;4.734;2023-04-07T13:47:01;14.10;;;10.20;;
17488;SDS011;8861;52.644;4.734;2023-04-07T13:49:28;17.10;;;10.23;;
17488;SDS011;8861;52.644;4.734;2023-04-07T13:51:57;16.03;;;9.93;;
17488;SDS011;8861;52.644;4.734;2023-04-07T13:54:24;14.70;;;9.40;;
17488;SDS011;8861;52.644;4.734;2023-04-07T13:56:51;16.77;;;11.30;;
17488;SDS011;8861;52.644;4.734;2023-04-07T13:59:18;17.53;;;11.30;;
17488;SDS011;8861;52.644;4.734;2023-04-07T14:01:45;17.87;;;11.53;;
17488;SDS011;8861;52.644;4.734;2023-04-07T14:04:12;18.90;;;11.73;;
17488;SDS011;8861;52.644;4.734;2023-04-07T14:06:39;17.47;;;11.27;;
17488;SDS011;8861;52.644;4.734;2023-04-07T14:09:08;16.43;;;10.87;;
17488;SDS011;8861;52.644;4.734;2023-04-07T14:11:35;22.83;;;14.57;;
17488;SDS011;8861;52.644;4.734;2023-04-07T14:14:02;20.67;;;12.93;;
17488;SDS011;8861;52.644;4.734;2023-04-07T14:16:29;20.97;;;14.00;;
17488;SDS011;8861;52.644;4.734;2023-04-07T14:18:56;25.53;;;15.73;;
17488;SDS011;8861;52.644;4.734;2023-04-07T14:21:23;23.70;;;15.30;;
17488;SDS011;8861;52.644;4.734;2023-04-07T14:23:51;23.20;;;14.40;;
17488;SDS011;8861;52.644;4.734;2023-04-07T14:26:20;22.40;;;14.57;;
17488;SDS011;8861;52.644;4.734;2023-04-07T14:28:47;26.27;;;16.70;;
17488;SDS011;8861;52.644;4.734;2023-04-07T14:31:14;28.27;;;16.43;;
17488;SDS011;8861;52.644;4.734;2023-04-07T14:33:41;27.43;;;16.50;;
17488;SDS011;8861;52.644;4.734;2023-04-07T14:36:09;25.47;;;15.40;;
17488;SDS011;8861;52.644;4.734;2023-04-07T14:38:36;25.20;;;15.27;;
17488;SDS011;8861;52.644;4.734;2023-04-07T14:41:03;32.40;;;19.70;;
17488;SDS011;8861;52.644;4.734;2023-04-07T14:43:32;31.97;;;17.90;;
17488;SDS011;8861;52.644;4.734;2023-04-07T14:45:59;26.30;;;16.33;;
17488;SDS011;8861;52.644;4.734;2023-04-07T14:48:27;25.37;;;14.77;;
17488;SDS011;8861;52.644;4.734;2023-04-07T14:50:53;21.30;;;13.77;;
17488;SDS011;8861;52.644;4.734;2023-04-07T14:53:20;19.60;;;13.17;;
17488;SDS011;8861;52.644;4.734;2023-04-07T14:55:47;23.93;;;15.33;;
17488;SDS011;8861;52.644;4.734;2023-04-07T14:58:14;21.23;;;14.43;;
17488;SDS011;8861;52.644;4.734;2023-04-07T15:00:43;20.70;;;14.73;;
17488;SDS011;8861;52.644;4.734;2023-04-07T15:03:09;20.73;;;15.27;;
17488;SDS011;8861;52.644;4.734;2023-04-07T15:05:36;21.23;;;14.90;;
17488;SDS011;8861;52.644;4.734;2023-04-07T15:08:04;20.77;;;14.13;;
17488;SDS011;8861;52.644;4.734;2023-04-07T15:10:30;21.27;;;14.33;;